createdAt,value
2018-04-29T00:02:06.454Z,16.55
2018-04-29T00:04:33.443Z,15.70
2018-04-29T00:07:00.321Z,15.73
2018-04-29T00:09:27.133Z,14.65
2018-04-29T00:11:54.009Z,15.57
2018-04-29T00:14:20.839Z,15.75
2018-04-29T00:16:47.696Z,16.73
2018-04-29T00:19:14.522Z,15.82
2018-04-29T00:21:41.324Z,16.35
2018-04-29T00:24:08.119Z,16.77
2018-04-29T00:26:34.954Z,16.40
2018-04-29T00:29:01.704Z,17.75
2018-04-29T00:31:29.030Z,18.37
2018-04-29T00:33:55.912Z,16.25
2018-04-29T00:36:22.646Z,17.92
2018-04-29T00:38:50.061Z,18.10
2018-04-29T00:41:16.786Z,17.02
2018-04-29T00:43:43.514Z,17.62
2018-04-29T00:46:10.322Z,16.70
2018-04-29T00:48:37.047Z,17.58
2018-04-29T00:51:03.899Z,17.45
2018-04-29T00:53:30.668Z,17.73
2018-04-29T00:55:57.474Z,17.62
2018-04-29T00:58:24.288Z,18.98
2018-04-29T01:00:51.075Z,19.15
2018-04-29T01:03:18.748Z,18.27
2018-04-29T01:05:45.633Z,19.30
2018-04-29T01:08:12.429Z,20.95
2018-04-29T01:10:39.192Z,20.37
2018-04-29T01:13:06.027Z,21.10
2018-04-29T01:15:32.844Z,19.40
2018-04-29T01:17:59.620Z,20.02
2018-04-29T01:20:26.468Z,21.12
2018-04-29T01:22:53.228Z,19.05
2018-04-29T01:25:19.972Z,21.67
2018-04-29T01:27:46.762Z,20.10
2018-04-29T01:30:13.533Z,19.80
2018-04-29T01:32:40.506Z,19.95
2018-04-29T01:35:07.300Z,21.30
2018-04-29T01:37:34.055Z,20.50
2018-04-29T01:40:00.857Z,18.85
2018-04-29T01:42:27.579Z,20.50
2018-04-29T01:44:54.366Z,21.05
2018-04-29T01:47:21.102Z,20.02
2018-04-29T01:49:47.834Z,17.95
2018-04-29T01:52:14.584Z,20.27
2018-04-29T01:54:41.310Z,19.98
2018-04-29T01:57:08.042Z,20.23
2018-04-29T01:59:34.770Z,17.70
2018-04-29T02:02:01.503Z,19.70
2018-04-29T02:04:28.251Z,19.83
2018-04-29T02:06:54.972Z,20.85
2018-04-29T02:09:21.702Z,20.95
2018-04-29T02:11:49.824Z,23.12
2018-04-29T02:14:16.698Z,23.05
2018-04-29T02:16:43.418Z,22.35
2018-04-29T02:19:10.167Z,22.85
2018-04-29T02:21:36.884Z,22.83
2018-04-29T02:24:03.600Z,23.52
2018-04-29T02:26:30.328Z,23.60
2018-04-29T02:28:57.052Z,23.60
2018-04-29T02:31:23.884Z,23.75
2018-04-29T02:33:50.559Z,23.60
2018-04-29T02:36:17.282Z,23.85
2018-04-29T02:38:44.004Z,22.70
2018-04-29T02:41:10.743Z,21.77
2018-04-29T02:43:37.497Z,23.10
2018-04-29T02:46:04.223Z,21.05
2018-04-29T02:48:30.974Z,22.92
2018-04-29T02:50:57.699Z,21.60
2018-04-29T02:53:24.429Z,20.30
2018-04-29T02:55:51.159Z,21.92
2018-04-29T02:58:17.921Z,21.23
2018-04-29T03:00:44.643Z,21.48
2018-04-29T03:03:11.363Z,22.02
2018-04-29T03:05:38.082Z,21.08
2018-04-29T03:08:05.075Z,22.05
2018-04-29T03:10:32.432Z,22.67
2018-04-29T03:12:59.262Z,20.70
2018-04-29T03:15:25.974Z,21.42
2018-04-29T03:17:52.710Z,22.90
2018-04-29T03:20:19.455Z,22.27
2018-04-29T03:22:46.204Z,22.90
2018-04-29T03:25:12.930Z,23.08
2018-04-29T03:27:39.670Z,24.05
2018-04-29T03:30:06.395Z,23.98
2018-04-29T03:32:33.124Z,24.33
2018-04-29T03:34:59.874Z,22.20
2018-04-29T03:37:26.595Z,24.30
2018-04-29T03:39:54.233Z,24.10
2018-04-29T03:42:20.959Z,22.55
2018-04-29T03:44:47.680Z,25.48
2018-04-29T03:47:14.615Z,23.05
2018-04-29T03:49:41.726Z,22.70
2018-04-29T03:52:08.441Z,23.58
2018-04-29T03:54:35.163Z,23.95
2018-04-29T03:57:07.820Z,22.80
2018-04-29T03:59:40.378Z,23.55
2018-04-29T04:02:22.939Z,23.62
2018-04-29T04:04:49.663Z,23.70
2018-04-29T04:07:16.446Z,25.85
2018-04-29T04:09:43.232Z,24.77
2018-04-29T04:12:09.925Z,23.70
2018-04-29T04:14:36.649Z,24.17
2018-04-29T04:17:03.538Z,23.30
2018-04-29T04:19:30.411Z,25.27
2018-04-29T04:21:57.215Z,24.85
2018-04-29T04:24:23.939Z,22.42
2018-04-29T04:26:50.663Z,24.50
2018-04-29T04:29:17.388Z,22.10
2018-04-29T04:31:44.171Z,22.77
2018-04-29T04:34:11.739Z,24.00
2018-04-29T04:36:38.975Z,24.17
2018-04-29T04:39:05.779Z,25.40
2018-04-29T04:41:32.503Z,23.77
2018-04-29T04:43:59.244Z,23.52
2018-04-29T04:46:25.990Z,22.67
2018-04-29T04:48:52.708Z,21.70
2018-04-29T04:51:19.458Z,22.50
2018-04-29T04:53:46.260Z,23.90
2018-04-29T04:56:13.837Z,23.05
2018-04-29T04:58:40.563Z,22.05
2018-04-29T05:01:07.288Z,21.75
2018-04-29T05:03:34.020Z,22.92
2018-04-29T05:06:00.770Z,22.80
2018-04-29T05:08:27.524Z,23.42
2018-04-29T05:10:54.294Z,23.00
2018-04-29T05:13:21.005Z,24.55
2018-04-29T05:15:47.732Z,23.02
2018-04-29T05:18:14.470Z,25.17
2018-04-29T05:20:41.458Z,24.75
2018-04-29T05:23:08.185Z,26.20
2018-04-29T05:25:34.908Z,25.15
2018-04-29T05:28:01.628Z,26.25
2018-04-29T05:30:28.407Z,25.40
2018-04-29T05:32:55.127Z,23.60
2018-04-29T05:35:21.953Z,23.77
2018-04-29T05:37:48.725Z,23.45
2018-04-29T05:40:15.522Z,23.23
2018-04-29T05:42:42.313Z,21.65
2018-04-29T05:45:09.077Z,21.75
2018-04-29T05:47:35.954Z,18.62
2018-04-29T05:50:02.788Z,18.33
2018-04-29T05:52:29.600Z,23.98
2018-04-29T05:54:56.376Z,18.27
2018-04-29T05:57:23.185Z,16.67
2018-04-29T05:59:50.036Z,16.02
2018-04-29T06:02:16.821Z,14.60
2018-04-29T06:04:43.621Z,14.90
2018-04-29T06:07:10.449Z,12.93
2018-04-29T06:09:37.251Z,12.17
2018-04-29T06:12:04.060Z,12.30
2018-04-29T06:14:30.846Z,12.00
2018-04-29T06:16:57.609Z,12.40
2018-04-29T06:19:24.396Z,11.40
2018-04-29T06:21:51.153Z,10.73
2018-04-29T06:24:18.006Z,11.57
2018-04-29T06:26:44.829Z,11.30
2018-04-29T06:29:11.647Z,11.17
2018-04-29T06:31:38.455Z,10.27
2018-04-29T06:34:05.238Z,10.93
2018-04-29T06:36:32.015Z,10.67
2018-04-29T06:38:58.776Z,9.57
2018-04-29T06:41:26.473Z,10.23
2018-04-29T06:43:53.281Z,10.10
2018-04-29T06:46:20.059Z,10.50
2018-04-29T06:48:46.898Z,10.10
2018-04-29T06:51:13.683Z,9.37
2018-04-29T06:53:40.485Z,9.30
2018-04-29T06:56:07.250Z,9.83
2018-04-29T06:58:34.023Z,9.70
2018-04-29T07:01:00.780Z,10.00
2018-04-29T07:03:27.553Z,9.80
2018-04-29T07:05:54.452Z,9.33
2018-04-29T07:08:21.237Z,9.40
2018-04-29T07:10:48.042Z,10.03
2018-04-29T07:13:14.840Z,11.33
2018-04-29T07:15:42.290Z,10.27
2018-04-29T07:18:09.308Z,9.37
2018-04-29T07:20:36.068Z,9.13
2018-04-29T07:23:02.886Z,10.00
2018-04-29T07:25:29.724Z,10.53
2018-04-29T07:27:56.498Z,15.13
2018-04-29T07:30:23.293Z,16.97
2018-04-29T07:32:50.629Z,17.70
2018-04-29T07:35:19.699Z,18.40
2018-04-29T07:37:48.188Z,17.73
2018-04-29T07:40:16.399Z,17.17
2018-04-29T07:42:45.575Z,15.33
2018-04-29T07:45:14.148Z,15.47
2018-04-29T07:47:42.157Z,12.70
2018-04-29T07:50:11.402Z,10.90
2018-04-29T07:52:40.292Z,10.83
2018-04-29T07:55:08.700Z,10.70
2018-04-29T07:57:36.288Z,9.47
2018-04-29T08:00:04.582Z,10.03
2018-04-29T08:02:32.003Z,9.43
2018-04-29T08:04:59.882Z,8.27
2018-04-29T08:07:27.306Z,10.30
2018-04-29T08:09:55.371Z,9.67
2018-04-29T08:12:23.633Z,8.93
2018-04-29T08:14:50.553Z,8.70
2018-04-29T08:17:17.522Z,8.27
2018-04-29T08:19:45.119Z,8.40
2018-04-29T08:22:11.941Z,7.57
2018-04-29T08:24:38.764Z,8.83
2018-04-29T08:27:05.567Z,8.27
2018-04-29T08:29:32.354Z,8.20
2018-04-29T08:31:59.141Z,8.90
2018-04-29T08:34:25.924Z,7.60
2018-04-29T08:36:52.742Z,7.97
2018-04-29T08:39:19.646Z,9.17
2018-04-29T08:41:46.607Z,7.40
2018-04-29T08:44:13.397Z,9.30
2018-04-29T08:46:40.155Z,7.53
2018-04-29T08:49:06.920Z,8.23
2018-04-29T08:51:33.703Z,8.43
2018-04-29T08:54:00.471Z,8.30
2018-04-29T08:56:27.347Z,8.20
2018-04-29T08:58:54.199Z,7.67
2018-04-29T09:01:20.973Z,8.07
2018-04-29T09:03:47.900Z,8.73
2018-04-29T09:06:14.675Z,8.40
2018-04-29T09:08:41.489Z,7.87
2018-04-29T09:11:09.123Z,8.70
2018-04-29T09:13:36.646Z,9.00
2018-04-29T09:16:04.154Z,6.83
2018-04-29T09:18:31.082Z,7.03
2018-04-29T09:20:59.981Z,7.60
2018-04-29T09:23:28.361Z,7.80
2018-04-29T09:25:55.397Z,7.80
2018-04-29T09:28:23.140Z,8.03
2018-04-29T09:30:50.664Z,6.50
2018-04-29T09:33:17.987Z,7.00
2018-04-29T09:35:44.807Z,6.90
2018-04-29T09:38:11.579Z,7.37
2018-04-29T09:40:38.338Z,8.13
2018-04-29T09:43:05.069Z,7.70
2018-04-29T09:45:31.818Z,7.73
2018-04-29T09:47:58.550Z,6.80
2018-04-29T09:50:25.282Z,7.23
2018-04-29T09:52:52.016Z,6.93
2018-04-29T09:55:19.010Z,7.70
2018-04-29T09:57:45.758Z,7.13
2018-04-29T10:00:12.598Z,7.30
